createdAt,value
2019-02-22T00:00:58.777Z,8.13
2019-02-22T00:03:32.627Z,8.40
2019-02-22T00:06:05.139Z,8.50
2019-02-22T00:08:37.984Z,8.33
2019-02-22T00:11:13.038Z,8.70
2019-02-22T00:13:46.874Z,9.83
2019-02-22T00:16:27.929Z,6.97
2019-02-22T00:19:08.465Z,7.30
2019-02-22T00:21:44.661Z,6.50
2019-02-22T00:24:29.296Z,6.60
2019-02-22T00:26:57.660Z,5.77
2019-02-22T00:29:31.063Z,5.83
2019-02-22T00:32:03.204Z,5.40
2019-02-22T00:34:34.205Z,5.27
2019-02-22T00:37:07.214Z,5.77
2019-02-22T00:39:38.877Z,4.37
2019-02-22T00:42:10.148Z,5.33
2019-02-22T00:44:41.953Z,4.53
2019-02-22T00:47:13.292Z,4.90
2019-02-22T00:49:44.583Z,6.70
2019-02-22T00:52:15.749Z,5.73
2019-02-22T00:54:47.125Z,5.60
2019-02-22T00:57:18.636Z,6.10
2019-02-22T00:59:51.337Z,6.03
2019-02-22T01:02:22.654Z,5.93
2019-02-22T01:04:54.099Z,5.87
2019-02-22T01:07:35.251Z,5.97
2019-02-22T01:10:06.685Z,5.67
2019-02-22T01:12:40.062Z,5.87
2019-02-22T01:15:12.342Z,4.97
2019-02-22T01:17:43.638Z,5.63
2019-02-22T01:20:15.027Z,5.50
2019-02-22T01:22:46.576Z,5.60
2019-02-22T01:25:18.819Z,4.80
2019-02-22T01:27:50.103Z,5.20
2019-02-22T01:30:21.410Z,5.20
2019-02-22T01:32:52.712Z,5.00
2019-02-22T01:35:24.239Z,4.80
2019-02-22T01:37:56.779Z,5.47
2019-02-22T01:40:27.645Z,5.67
2019-02-22T01:42:58.849Z,5.10
2019-02-22T01:45:30.221Z,5.33
2019-02-22T01:48:01.023Z,4.83
2019-02-22T01:50:33.587Z,5.30
2019-02-22T01:53:05.079Z,4.83
2019-02-22T01:55:37.930Z,4.80
2019-02-22T01:58:10.466Z,5.00
2019-02-22T02:01:13.030Z,4.40
2019-02-22T02:03:44.498Z,3.93
2019-02-22T02:06:15.852Z,4.10
2019-02-22T02:08:46.818Z,4.03
2019-02-22T02:11:19.612Z,4.53
2019-02-22T02:13:51.343Z,5.53
2019-02-22T02:16:22.505Z,4.97
2019-02-22T02:18:54.058Z,4.30
2019-02-22T02:21:25.418Z,3.63
2019-02-22T02:23:57.072Z,3.67
2019-02-22T02:26:27.953Z,3.73
2019-02-22T02:29:02.430Z,3.50
2019-02-22T02:31:36.424Z,3.33
2019-02-22T02:34:12.391Z,3.03
2019-02-22T02:36:45.289Z,3.83
2019-02-22T02:39:19.613Z,4.40
2019-02-22T02:41:50.384Z,3.70
2019-02-22T02:44:23.388Z,3.13
2019-02-22T02:46:54.791Z,3.17
2019-02-22T02:49:28.759Z,4.00
2019-02-22T02:52:01.286Z,3.70
2019-02-22T02:54:32.671Z,3.90
2019-02-22T02:57:03.952Z,3.70
2019-02-22T02:59:34.947Z,4.03
2019-02-22T03:02:26.618Z,3.53
2019-02-22T03:05:03.804Z,3.73
2019-02-22T03:07:46.520Z,3.47
2019-02-22T03:10:35.551Z,3.13
2019-02-22T03:13:06.305Z,3.03
2019-02-22T03:15:40.405Z,3.47
2019-02-22T03:18:19.589Z,4.20
2019-02-22T03:20:52.351Z,3.37
2019-02-22T03:23:29.558Z,3.63
2019-02-22T03:26:01.262Z,3.50
2019-02-22T03:29:16.626Z,3.60
2019-02-22T03:31:58.318Z,3.33
2019-02-22T03:34:29.980Z,3.13
2019-02-22T03:37:05.789Z,3.00
2019-02-22T03:39:42.589Z,3.03
2019-02-22T03:42:38.190Z,3.73
2019-02-22T03:45:08.222Z,3.27
2019-02-22T03:47:47.039Z,3.80
2019-02-22T03:50:35.841Z,3.60
2019-02-22T03:53:19.633Z,2.73
2019-02-22T03:55:50.457Z,3.13
2019-02-22T03:58:21.639Z,3.00
2019-02-22T04:00:53.028Z,3.50
2019-02-22T04:03:24.773Z,3.30
2019-02-22T04:05:56.159Z,2.77
2019-02-22T04:08:27.599Z,3.47
2019-02-22T04:10:58.988Z,2.57
2019-02-22T04:13:29.685Z,4.17
2019-02-22T04:16:01.051Z,4.33
2019-02-22T04:18:32.495Z,3.53
2019-02-22T04:21:05.857Z,3.97
2019-02-22T04:23:37.558Z,3.80
2019-02-22T04:26:11.754Z,3.73
2019-02-22T04:28:43.017Z,4.57
2019-02-22T04:31:14.138Z,4.37
2019-02-22T04:33:46.132Z,3.40
2019-02-22T04:36:17.526Z,7.20
2019-02-22T04:38:49.041Z,10.97
2019-02-22T04:41:19.733Z,6.73
2019-02-22T04:43:50.754Z,5.00
2019-02-22T04:46:28.960Z,5.93
2019-02-22T04:49:12.605Z,4.63
2019-02-22T04:51:44.181Z,4.50
2019-02-22T04:54:15.658Z,4.60
2019-02-22T04:56:47.176Z,4.17
2019-02-22T04:59:17.831Z,4.40
2019-02-22T05:01:49.457Z,4.30
2019-02-22T05:04:20.881Z,5.37
2019-02-22T05:06:52.193Z,5.13
2019-02-22T05:09:22.853Z,3.83
2019-02-22T05:11:54.200Z,3.70
2019-02-22T05:14:26.018Z,3.10
2019-02-22T05:16:57.396Z,3.57
2019-02-22T05:19:51.177Z,3.37
2019-02-22T05:22:32.688Z,2.97
2019-02-22T05:25:18.760Z,4.10
2019-02-22T05:27:55.750Z,3.27
2019-02-22T05:30:28.617Z,3.90
2019-02-22T05:33:00.300Z,3.90
2019-02-22T05:35:31.332Z,4.73
2019-02-22T05:38:02.718Z,5.07
2019-02-22T05:40:33.409Z,5.30
2019-02-22T05:43:04.757Z,5.30
2019-02-22T05:45:35.500Z,4.60
2019-02-22T05:48:06.239Z,4.93
2019-02-22T05:50:36.768Z,5.47
2019-02-22T05:53:08.141Z,4.10
2019-02-22T05:55:39.503Z,3.83
2019-02-22T05:58:10.568Z,4.17
2019-02-22T06:00:41.126Z,4.53
2019-02-22T06:03:11.913Z,3.83
2019-02-22T06:05:43.489Z,3.37
2019-02-22T06:08:14.759Z,4.03
2019-02-22T06:10:47.026Z,3.77
2019-02-22T06:13:18.106Z,4.30
2019-02-22T06:15:49.363Z,4.17
2019-02-22T06:18:23.016Z,4.67
2019-02-22T06:20:54.260Z,3.47
2019-02-22T06:23:24.976Z,3.70
2019-02-22T06:25:56.024Z,7.10
2019-02-22T06:28:27.513Z,6.33
2019-02-22T06:30:59.051Z,7.90
2019-02-22T06:33:30.501Z,7.17
2019-02-22T06:36:03.500Z,8.93
2019-02-22T06:38:35.515Z,7.17
2019-02-22T06:41:06.500Z,6.10
2019-02-22T06:43:37.679Z,4.93
2019-02-22T06:46:09.349Z,4.80
2019-02-22T06:48:41.671Z,5.30
2019-02-22T06:51:13.536Z,4.00
2019-02-22T06:53:44.773Z,4.43
2019-02-22T06:56:16.086Z,4.80
2019-02-22T06:58:48.642Z,4.50
2019-02-22T07:01:19.867Z,4.77
2019-02-22T07:03:51.573Z,3.63
2019-02-22T07:06:23.075Z,4.10
2019-02-22T07:08:54.344Z,3.77
2019-02-22T07:11:41.861Z,6.57
2019-02-22T07:14:12.802Z,4.77
2019-02-22T07:16:45.143Z,5.00
2019-02-22T07:19:23.911Z,4.60
2019-02-22T07:21:55.353Z,4.90
2019-02-22T07:24:26.673Z,3.87
2019-02-22T07:26:57.490Z,4.00
2019-02-22T07:29:28.874Z,3.23
2019-02-22T07:32:05.922Z,3.97
2019-02-22T07:34:33.100Z,3.80
2019-02-22T07:37:04.084Z,3.70
2019-02-22T07:39:36.567Z,3.53
2019-02-22T07:42:08.059Z,3.83
2019-02-22T07:44:39.557Z,4.20
2019-02-22T07:47:11.059Z,3.93
2019-02-22T07:49:42.553Z,4.47
2019-02-22T07:52:13.950Z,5.43
2019-02-22T07:54:46.694Z,7.13
2019-02-22T07:57:18.128Z,11.93
2019-02-22T07:59:49.573Z,5.50
2019-02-22T08:02:20.842Z,4.90
2019-02-22T08:04:52.289Z,5.30
2019-02-22T08:07:24.005Z,4.93
2019-02-22T08:09:55.461Z,4.80
2019-02-22T08:12:26.893Z,4.13
2019-02-22T08:14:59.013Z,4.10
2019-02-22T08:17:32.210Z,4.30
2019-02-22T08:20:08.288Z,4.00
2019-02-22T08:22:42.740Z,3.63
2019-02-22T08:25:21.946Z,4.10
2019-02-22T08:27:55.029Z,3.37
2019-02-22T08:30:28.410Z,3.57
2019-02-22T08:33:00.134Z,3.97
2019-02-22T08:35:31.960Z,2.93
2019-02-22T08:38:04.499Z,3.20
2019-02-22T08:40:35.761Z,2.90
2019-02-22T08:43:07.242Z,2.90
2019-02-22T08:45:39.404Z,3.13
2019-02-22T08:48:11.412Z,3.80
2019-02-22T08:50:43.302Z,3.67
2019-02-22T08:53:14.825Z,3.73
2019-02-22T08:55:46.069Z,3.07
2019-02-22T08:58:17.475Z,3.23
2019-02-22T09:00:48.919Z,2.90
2019-02-22T09:03:27.777Z,3.07
2019-02-22T09:06:01.086Z,3.33
2019-02-22T09:08:32.779Z,3.13
2019-02-22T09:11:05.877Z,3.30
2019-02-22T09:13:43.690Z,3.23
2019-02-22T09:16:11.082Z,3.57
2019-02-22T09:18:42.866Z,2.90
2019-02-22T09:21:15.638Z,3.20
2019-02-22T09:23:46.889Z,3.10
2019-02-22T09:26:21.354Z,3.03
2019-02-22T09:28:55.718Z,3.20
2019-02-22T09:31:27.105Z,2.77
2019-02-22T09:33:59.574Z,3.73
2019-02-22T09:36:30.958Z,4.80
2019-02-22T09:39:04.126Z,4.30
2019-02-22T09:41:37.198Z,4.40
2019-02-22T09:44:08.830Z,3.67
2019-02-22T09:46:40.416Z,3.17
2019-02-22T09:49:14.268Z,3.50
2019-02-22T09:51:45.295Z,3.30
2019-02-22T09:54:16.586Z,3.50
2019-02-22T09:56:48.493Z,2.87
2019-02-22T09:59:20.081Z,2.97
2019-02-22T10:01:51.526Z,2.73
2019-02-22T10:04:22.912Z,3.50
2019-02-22T10:06:54.881Z,2.90
2019-02-22T10:09:26.124Z,3.03
2019-02-22T10:11:58.131Z,3.07
2019-02-22T10:14:31.092Z,3.13
2019-02-22T10:17:03.934Z,2.80
2019-02-22T10:19:36.857Z,3.13
2019-02-22T10:22:09.751Z,2.40
2019-02-22T10:24:41.564Z,2.43
2019-02-22T10:27:16.164Z,2.60
2019-02-22T10:29:47.537Z,3.40
2019-02-22T10:32:18.977Z,3.27
2019-02-22T10:34:50.384Z,3.10
2019-02-22T10:37:22.542Z,2.40
2019-02-22T10:39:55.549Z,2.70
2019-02-22T10:42:26.913Z,2.50
2019-02-22T10:45:02.011Z,2.40
2019-02-22T10:47:36.538Z,2.53
2019-02-22T10:50:13.329Z,2.13
2019-02-22T10:52:44.754Z,2.47
2019-02-22T10:55:16.237Z,3.70
2019-02-22T10:57:48.588Z,2.77
2019-02-22T11:00:20.427Z,2.97
2019-02-22T11:02:53.456Z,3.50
2019-02-22T11:05:24.787Z,3.30
2019-02-22T11:07:56.520Z,2.77
2019-02-22T11:10:28.064Z,3.30
2019-02-22T11:12:59.646Z,2.33
2019-02-22T11:15:33.000Z,3.20
2019-02-22T11:18:05.351Z,3.13
2019-02-22T11:20:38.219Z,3.10
2019-02-22T11:23:10.507Z,3.20
2019-02-22T11:25:41.795Z,3.60
2019-02-22T11:28:14.621Z,7.60
2019-02-22T11:30:45.926Z,3.97
2019-02-22T11:33:17.633Z,3.93
2019-02-22T11:35:49.019Z,4.23
2019-02-22T11:38:22.268Z,3.87
2019-02-22T11:40:53.808Z,3.53
2019-02-22T11:43:25.101Z,2.87
2019-02-22T11:46:03.517Z,2.93
2019-02-22T11:48:36.732Z,3.23
2019-02-22T11:51:09.758Z,3.10
2019-02-22T11:53:41.955Z,3.13
2019-02-22T11:56:13.440Z,3.60
2019-02-22T11:58:44.981Z,3.17
2019-02-22T12:01:17.108Z,2.73
2019-02-22T12:03:48.714Z,3.00
2019-02-22T12:06:20.596Z,2.70
2019-02-22T12:08:52.044Z,3.10
2019-02-22T12:11:23.401Z,3.07
2019-02-22T12:13:55.481Z,5.17
2019-02-22T12:16:27.274Z,4.30
2019-02-22T12:19:00.575Z,3.97
2019-02-22T12:21:32.194Z,5.40
2019-02-22T12:24:03.595Z,3.57
2019-02-22T12:26:36.033Z,3.50
2019-02-22T12:29:08.298Z,3.43
2019-02-22T12:31:40.800Z,3.90
2019-02-22T12:34:14.203Z,3.10
2019-02-22T12:36:47.234Z,2.70
2019-02-22T12:39:19.137Z,3.47
2019-02-22T12:41:53.697Z,3.47
2019-02-22T12:44:25.171Z,3.77
2019-02-22T12:46:58.081Z,2.73
2019-02-22T12:49:29.463Z,5.17
2019-02-22T12:52:01.699Z,3.50
2019-02-22T12:54:34.519Z,4.10
2019-02-22T12:57:05.997Z,6.83
2019-02-22T12:59:43.619Z,4.03
2019-02-22T13:02:17.908Z,4.70
2019-02-22T13:04:50.792Z,4.77
2019-02-22T13:07:27.910Z,4.90
2019-02-22T13:09:59.560Z,5.60
2019-02-22T13:12:38.058Z,4.37
2019-02-22T13:15:14.439Z,4.53
2019-02-22T13:17:46.398Z,4.33
2019-02-22T13:20:30.998Z,4.50
2019-02-22T13:23:02.722Z,3.53
2019-02-22T13:25:36.013Z,3.77
2019-02-22T13:28:08.108Z,3.40
2019-02-22T13:30:39.523Z,4.83
2019-02-22T13:33:11.034Z,4.13
2019-02-22T13:35:51.205Z,3.20
2019-02-22T13:38:22.915Z,4.10
2019-02-22T13:40:54.631Z,4.60
2019-02-22T13:43:26.034Z,5.00
2019-02-22T13:45:58.044Z,5.30
2019-02-22T13:48:30.322Z,3.83
2019-02-22T13:51:01.788Z,4.40
2019-02-22T13:53:33.821Z,3.90
2019-02-22T13:56:07.138Z,4.00
2019-02-22T13:58:38.733Z,3.50
2019-02-22T14:01:10.288Z,3.50
2019-02-22T14:03:41.679Z,4.57
2019-02-22T14:06:17.590Z,3.20
2019-02-22T14:08:49.140Z,3.57
2019-02-22T14:11:23.738Z,5.47
2019-02-22T14:13:58.758Z,9.37
2019-02-22T14:16:32.271Z,4.50
2019-02-22T14:22:14.186Z,4.37
2019-02-22T14:24:45.853Z,3.67
2019-02-22T14:27:18.358Z,4.07
2019-02-22T14:29:50.277Z,2.90
2019-02-22T14:32:22.384Z,3.23
2019-02-22T14:34:53.941Z,2.60
2019-02-22T14:37:25.756Z,2.90
2019-02-22T14:40:03.421Z,3.33
2019-02-22T14:42:33.285Z,3.73
2019-02-22T14:45:05.112Z,3.67
2019-02-22T14:47:38.592Z,3.90
2019-02-22T14:50:12.747Z,3.90
2019-02-22T14:52:57.613Z,3.77
2019-02-22T14:55:24.458Z,3.90
2019-02-22T14:57:55.913Z,4.33
2019-02-22T15:00:27.466Z,3.67
2019-02-22T15:02:59.344Z,4.03
2019-02-22T15:05:31.170Z,3.67
2019-02-22T15:08:04.269Z,3.60
2019-02-22T15:10:35.718Z,4.20
2019-02-22T15:13:07.504Z,4.97
2019-02-22T15:16:01.042Z,4.97
2019-02-22T15:18:31.944Z,4.53
2019-02-22T15:21:05.574Z,3.90
2019-02-22T15:23:38.808Z,4.60
2019-02-22T15:26:14.304Z,3.90
2019-02-22T15:28:46.097Z,4.13
2019-02-22T15:31:18.800Z,4.00
2019-02-22T15:33:50.966Z,3.87
2019-02-22T15:36:22.748Z,4.57
2019-02-22T15:38:57.212Z,4.27
2019-02-22T15:41:29.172Z,4.40
2019-02-22T15:44:01.975Z,4.87
2019-02-22T15:46:37.186Z,6.07
2019-02-22T15:49:10.237Z,5.43
2019-02-22T15:51:46.369Z,4.97
2019-02-22T15:54:17.893Z,5.07
2019-02-22T15:56:49.437Z,5.13
2019-02-22T15:59:21.310Z,4.77
2019-02-22T16:01:55.760Z,4.57
2019-02-22T16:05:00.588Z,4.63
2019-02-22T16:07:32.486Z,4.53
2019-02-22T16:10:05.504Z,3.80
2019-02-22T16:12:39.291Z,4.00
2019-02-22T16:15:11.684Z,5.20
2019-02-22T16:17:44.189Z,4.00
2019-02-22T16:20:15.978Z,4.37
2019-02-22T16:22:47.287Z,4.80
2019-02-22T16:25:20.110Z,4.27
2019-02-22T16:27:51.856Z,4.53
2019-02-22T16:30:24.438Z,4.37
2019-02-22T16:32:56.156Z,4.53
2019-02-22T16:35:27.713Z,4.40
2019-02-22T16:37:59.294Z,4.77
2019-02-22T16:40:32.347Z,4.07
2019-02-22T16:43:03.777Z,4.50
2019-02-22T16:45:36.116Z,5.07
2019-02-22T16:48:07.803Z,4.63
2019-02-22T16:50:39.746Z,4.70
2019-02-22T16:53:11.127Z,4.37
2019-02-22T16:55:43.029Z,4.30
2019-02-22T16:58:14.541Z,4.13
2019-02-22T17:00:45.921Z,4.40
2019-02-22T17:03:17.725Z,4.77
2019-02-22T17:05:49.524Z,5.37
2019-02-22T17:08:22.431Z,4.87
2019-02-22T17:10:55.511Z,6.10
2019-02-22T17:13:28.261Z,6.70
2019-02-22T17:16:01.456Z,6.20
2019-02-22T17:18:33.021Z,7.23
2019-02-22T17:21:04.518Z,7.67
2019-02-22T17:23:38.014Z,7.37
2019-02-22T17:26:12.685Z,8.73
2019-02-22T17:28:44.664Z,10.07
2019-02-22T17:31:18.169Z,10.50
2019-02-22T17:33:49.900Z,10.77
2019-02-22T17:36:27.141Z,10.23
2019-02-22T17:38:58.346Z,10.87
2019-02-22T17:41:30.071Z,10.57
2019-02-22T17:44:01.710Z,11.80
2019-02-22T17:46:33.600Z,10.73
2019-02-22T17:49:04.824Z,10.20
2019-02-22T17:51:37.617Z,8.97
2019-02-22T17:54:10.901Z,9.10
2019-02-22T17:56:42.402Z,9.37
2019-02-22T17:59:14.675Z,8.87
2019-02-22T18:01:46.550Z,8.00
2019-02-22T18:04:18.061Z,7.63
2019-02-22T18:06:49.605Z,7.20
2019-02-22T18:09:21.707Z,7.10
2019-02-22T18:11:54.746Z,7.13
2019-02-22T18:14:26.632Z,7.17
2019-02-22T18:17:07.930Z,7.60
2019-02-22T18:19:32.181Z,8.63
2019-02-22T18:22:03.858Z,8.50
2019-02-22T18:24:35.638Z,7.70
2019-02-22T18:27:07.962Z,8.30
2019-02-22T18:29:39.934Z,9.13
2019-02-22T18:32:11.890Z,9.57
2019-02-22T18:34:43.473Z,11.60
2019-02-22T18:37:14.793Z,10.63
2019-02-22T18:39:46.645Z,10.23
2019-02-22T18:42:18.023Z,10.27
2019-02-22T18:44:49.635Z,9.67
2019-02-22T18:47:21.352Z,9.07
2019-02-22T18:49:53.629Z,10.53
2019-02-22T18:52:25.427Z,9.23
2019-02-22T18:54:57.337Z,9.43
2019-02-22T18:57:29.057Z,9.03
2019-02-22T19:00:01.342Z,9.73
2019-02-22T19:02:35.751Z,9.43
2019-02-22T19:05:09.423Z,8.80
2019-02-22T19:07:40.777Z,8.77
2019-02-22T19:10:13.081Z,9.23
2019-02-22T19:12:47.188Z,9.00
2019-02-22T19:15:19.042Z,9.43
2019-02-22T19:17:51.534Z,8.80
2019-02-22T19:20:22.969Z,9.73
2019-02-22T19:22:55.436Z,9.17
2019-02-22T19:25:26.829Z,10.10
2019-02-22T19:27:58.373Z,11.47
2019-02-22T19:30:29.897Z,10.13
2019-02-22T19:33:01.489Z,11.93
2019-02-22T19:35:33.972Z,10.97
2019-02-22T19:38:05.785Z,11.07
2019-02-22T19:41:00.295Z,12.67
2019-02-22T19:43:38.356Z,13.70
2019-02-22T19:46:09.872Z,17.40
2019-02-22T19:48:41.585Z,16.53
2019-02-22T19:51:13.822Z,17.73
2019-02-22T19:53:45.149Z,19.13
2019-02-22T19:56:16.525Z,20.07
2019-02-22T19:58:47.846Z,21.77
2019-02-22T20:01:19.365Z,22.77
2019-02-22T20:03:51.329Z,23.27
2019-02-22T20:06:22.791Z,25.50
2019-02-22T20:08:54.139Z,22.40
2019-02-22T20:11:25.468Z,22.20
2019-02-22T20:13:57.634Z,23.67
2019-02-22T20:16:28.965Z,26.40
2019-02-22T20:19:01.238Z,26.67
2019-02-22T20:21:32.965Z,29.17
2019-02-22T20:24:04.264Z,30.00
2019-02-22T20:26:36.940Z,30.07
2019-02-22T20:29:08.444Z,33.30
2019-02-22T20:31:40.755Z,35.07
2019-02-22T20:34:13.462Z,33.53
2019-02-22T20:36:44.725Z,34.30
2019-02-22T20:39:16.255Z,31.63
2019-02-22T20:41:47.768Z,32.23
2019-02-22T20:44:19.099Z,31.07
2019-02-22T20:46:50.467Z,29.53
2019-02-22T20:49:22.264Z,32.77
2019-02-22T20:51:54.165Z,30.60
2019-02-22T20:54:25.630Z,30.43
2019-02-22T20:56:57.002Z,30.63
2019-02-22T20:59:29.019Z,32.33
2019-02-22T21:02:01.253Z,31.83
2019-02-22T21:04:33.091Z,33.50
2019-02-22T21:07:04.981Z,33.27
2019-02-22T21:09:36.357Z,35.50
2019-02-22T21:12:07.878Z,35.13
2019-02-22T21:14:39.872Z,37.03
2019-02-22T21:17:13.090Z,38.23
2019-02-22T21:19:44.529Z,35.70
2019-02-22T21:22:16.067Z,34.73
2019-02-22T21:24:48.084Z,33.97
2019-02-22T21:27:20.337Z,32.93
2019-02-22T21:29:52.048Z,32.60
2019-02-22T21:32:24.763Z,31.17
2019-02-22T21:34:56.272Z,31.17
2019-02-22T21:37:27.698Z,29.90
2019-02-22T21:40:00.444Z,28.63
2019-02-22T21:42:34.913Z,28.13
2019-02-22T21:45:06.698Z,27.53
2019-02-22T21:47:41.096Z,28.63
2019-02-22T21:50:13.180Z,28.83
2019-02-22T21:52:45.181Z,29.80
2019-02-22T21:55:16.529Z,27.83
2019-02-22T21:57:47.939Z,27.23
2019-02-22T22:00:19.764Z,28.63
2019-02-22T22:02:52.047Z,28.03
2019-02-22T22:05:24.991Z,27.50
2019-02-22T22:07:57.399Z,26.03
2019-02-22T22:10:30.333Z,28.03
2019-02-22T22:13:01.832Z,24.87
2019-02-22T22:15:33.628Z,24.50
2019-02-22T22:18:05.002Z,26.27
2019-02-22T22:20:38.283Z,24.10
2019-02-22T22:23:10.291Z,26.93
2019-02-22T22:25:41.705Z,26.87
2019-02-22T22:28:13.526Z,25.73
2019-02-22T22:30:47.106Z,26.80
2019-02-22T22:33:18.684Z,25.17
2019-02-22T22:35:52.189Z,26.63
2019-02-22T22:38:25.642Z,26.00
2019-02-22T22:40:58.402Z,25.40
2019-02-22T22:43:30.327Z,25.57
2019-02-22T22:46:01.940Z,24.03
2019-02-22T22:48:35.586Z,21.00
2019-02-22T22:51:07.539Z,22.10
2019-02-22T22:53:38.797Z,21.77
2019-02-22T22:56:11.061Z,21.90
2019-02-22T22:58:43.651Z,20.00
2019-02-22T23:01:20.544Z,18.80
2019-02-22T23:03:52.218Z,18.53
2019-02-22T23:06:23.789Z,19.00
2019-02-22T23:08:56.663Z,17.93
2019-02-22T23:11:28.426Z,17.07
2019-02-22T23:14:02.243Z,17.07
2019-02-22T23:16:35.447Z,16.20
2019-02-22T23:19:08.582Z,17.00
2019-02-22T23:21:42.716Z,17.47
2019-02-22T23:24:15.360Z,17.63
2019-02-22T23:26:47.094Z,16.63
2019-02-22T23:29:18.917Z,17.87
2019-02-22T23:31:50.640Z,15.90
2019-02-22T23:34:22.130Z,17.83
2019-02-22T23:36:54.618Z,15.07
2019-02-22T23:39:27.107Z,16.43
2019-02-22T23:41:59.016Z,16.03
2019-02-22T23:44:30.668Z,16.33
2019-02-22T23:47:02.109Z,14.67
2019-02-22T23:49:33.766Z,15.63
2019-02-22T23:52:05.257Z,15.07
2019-02-22T23:54:36.972Z,14.17
2019-02-22T23:57:11.508Z,14.80
2019-02-22T23:59:43.590Z,14.17
